createdAt,value
2019-05-02T00:01:35.973Z,97481.39
2019-05-02T00:03:44.409Z,97477.83
2019-05-02T00:05:52.880Z,97478.74
2019-05-02T00:08:02.912Z,97480.72
2019-05-02T00:10:15.140Z,97476.88
2019-05-02T00:12:23.303Z,97474.25
2019-05-02T00:14:32.963Z,97474.14
2019-05-02T00:16:45.201Z,97476.63
2019-05-02T00:18:51.044Z,97477.34
2019-05-02T00:21:01.533Z,97472.94
2019-05-02T00:23:09.851Z,97474.36
2019-05-02T00:25:17.669Z,97470.41
2019-05-02T00:27:25.911Z,97462.73
2019-05-02T00:29:34.888Z,97467.73
2019-05-02T00:31:46.862Z,97464.02
2019-05-02T00:33:52.732Z,97461.22
2019-05-02T00:36:00.515Z,97471.58
2019-05-02T00:38:08.508Z,97469.58
2019-05-02T00:40:20.112Z,97469.70
2019-05-02T00:42:26.531Z,97463.97
2019-05-02T00:44:34.545Z,97457.31
2019-05-02T00:46:42.334Z,97457.65
2019-05-02T00:48:54.178Z,97458.33
2019-05-02T00:51:01.647Z,97460.80
2019-05-02T00:53:11.986Z,97459.87
2019-05-02T00:55:19.959Z,97459.64
2019-05-02T00:57:28.171Z,97455.80
2019-05-02T00:59:37.726Z,97461.75
2019-05-02T01:01:47.709Z,97453.05
2019-05-02T01:04:00.122Z,97453.50
2019-05-02T01:06:13.638Z,97449.89
2019-05-02T01:08:17.798Z,97443.16
2019-05-02T01:10:25.807Z,97443.72
2019-05-02T01:12:33.998Z,97439.42
2019-05-02T01:14:41.885Z,97440.45
2019-05-02T01:16:54.407Z,97434.42
2019-05-02T01:18:59.565Z,97432.91
2019-05-02T01:21:08.038Z,97437.32
2019-05-02T01:23:16.154Z,97432.87
2019-05-02T01:25:24.341Z,97433.26
2019-05-02T01:27:36.009Z,97432.69
2019-05-02T01:29:47.821Z,97430.77
2019-05-02T01:31:57.365Z,97429.27
2019-05-02T01:34:07.867Z,97418.56
2019-05-02T01:36:17.336Z,97423.91
2019-05-02T01:38:31.681Z,97419.16
2019-05-02T01:40:39.484Z,97422.17
2019-05-02T01:42:49.134Z,97425.23
2019-05-02T01:44:57.156Z,97426.62
2019-05-02T01:47:07.183Z,97418.83
2019-05-02T01:49:16.853Z,97407.08
2019-05-02T01:51:24.679Z,97404.38
2019-05-02T01:53:34.399Z,97409.98
2019-05-02T01:55:42.384Z,97404.83
2019-05-02T01:57:50.470Z,97399.48
2019-05-02T01:59:58.625Z,97406.33
2019-05-02T02:02:07.035Z,97400.58
2019-05-02T02:04:16.154Z,97406.83
2019-05-02T02:06:24.742Z,97405.39
2019-05-02T02:08:33.962Z,97407.09
2019-05-02T02:10:43.794Z,97412.16
2019-05-02T02:13:03.399Z,97407.53
2019-05-02T02:15:03.203Z,97405.20
2019-05-02T02:17:15.484Z,97399.43
2019-05-02T02:19:28.852Z,97404.17
2019-05-02T02:21:38.316Z,97405.16
2019-05-02T02:23:56.939Z,97411.17
2019-05-02T02:26:13.883Z,97399.88
2019-05-02T02:28:21.956Z,97398.98
2019-05-02T02:30:30.398Z,97404.52
2019-05-02T02:32:38.737Z,97414.19
2019-05-02T02:34:46.655Z,97414.19
2019-05-02T02:36:54.605Z,97405.89
2019-05-02T02:39:07.192Z,97411.34
2019-05-02T02:41:15.095Z,97402.23
2019-05-02T02:43:34.365Z,97413.57
2019-05-02T02:45:51.778Z,97409.11
2019-05-02T02:48:00.001Z,97408.04
2019-05-02T02:50:06.831Z,97406.44
2019-05-02T02:52:15.129Z,97410.88
2019-05-02T02:54:23.039Z,97415.64
2019-05-02T02:56:34.529Z,97402.87
2019-05-02T02:58:45.564Z,97407.72
2019-05-02T03:00:50.114Z,97403.28
2019-05-02T03:02:59.056Z,97403.23
2019-05-02T03:05:08.082Z,97402.08
2019-05-02T03:07:24.159Z,97402.95
2019-05-02T03:09:28.514Z,97401.63
2019-05-02T03:11:43.431Z,97404.66
2019-05-02T03:14:05.531Z,97403.44
2019-05-02T03:16:09.418Z,97410.02
2019-05-02T03:18:18.474Z,97404.05
2019-05-02T03:20:26.543Z,97409.30
2019-05-02T03:22:41.375Z,97415.75
2019-05-02T03:24:46.819Z,97411.52
2019-05-02T03:26:55.860Z,97410.28
2019-05-02T03:29:05.080Z,97415.30
2019-05-02T03:31:24.346Z,97412.88
2019-05-02T03:33:23.812Z,97413.34
2019-05-02T03:35:43.517Z,97409.98
2019-05-02T03:37:44.661Z,97413.36
2019-05-02T03:39:57.335Z,97412.84
2019-05-02T03:42:02.753Z,97415.25
2019-05-02T03:44:18.219Z,97419.77
2019-05-02T03:46:22.821Z,97415.91
2019-05-02T03:48:30.838Z,97423.80
2019-05-02T03:50:39.588Z,97425.01
2019-05-02T03:52:50.530Z,97420.72
2019-05-02T03:54:59.125Z,97422.55
2019-05-02T03:57:06.997Z,97420.90
2019-05-02T03:59:15.038Z,97422.79
2019-05-02T04:01:23.859Z,97421.46
2019-05-02T04:03:34.259Z,97418.91
2019-05-02T04:05:42.319Z,97425.87
2019-05-02T04:07:51.346Z,97418.77
2019-05-02T04:10:00.309Z,97421.31
2019-05-02T04:12:18.383Z,97426.49
2019-05-02T04:14:36.053Z,97420.95
2019-05-02T04:16:29.453Z,97428.63
2019-05-02T04:18:38.584Z,97428.88
2019-05-02T04:20:49.610Z,97420.05
2019-05-02T04:22:57.182Z,97416.77
2019-05-02T04:25:06.935Z,97414.00
2019-05-02T04:27:15.276Z,97418.91
2019-05-02T04:29:24.447Z,97424.03
2019-05-02T04:31:33.875Z,97417.49
2019-05-02T04:33:43.224Z,97423.92
2019-05-02T04:35:51.023Z,97418.92
2019-05-02T04:38:02.535Z,97414.00
2019-05-02T04:40:12.216Z,97416.22
2019-05-02T04:42:22.936Z,97417.63
2019-05-02T04:44:29.822Z,97415.84
2019-05-02T04:46:38.781Z,97413.82
2019-05-02T04:48:49.746Z,97417.78
2019-05-02T04:51:01.992Z,97416.13
2019-05-02T04:53:08.590Z,97418.67
2019-05-02T04:55:25.940Z,97418.00
2019-05-02T04:57:27.209Z,97416.96
2019-05-02T04:59:35.095Z,97422.13
2019-05-02T05:01:52.778Z,97417.63
2019-05-02T05:03:58.389Z,97423.11
2019-05-02T05:06:08.066Z,97423.78
2019-05-02T05:08:11.527Z,97427.72
2019-05-02T05:10:19.747Z,97424.23
2019-05-02T05:12:32.514Z,97431.55
2019-05-02T05:14:42.890Z,97433.58
2019-05-02T05:16:51.687Z,97427.66
2019-05-02T05:18:57.868Z,97425.98
2019-05-02T05:21:10.478Z,97419.23
2019-05-02T05:23:21.493Z,97421.10
2019-05-02T05:25:32.593Z,97419.89
2019-05-02T05:27:40.395Z,97417.28
2019-05-02T05:29:48.684Z,97418.40
2019-05-02T05:32:05.105Z,97411.41
2019-05-02T05:34:07.793Z,97411.95
2019-05-02T05:36:19.743Z,97419.80
2019-05-02T05:38:28.558Z,97414.30
2019-05-02T05:40:37.608Z,97405.80
2019-05-02T05:42:47.914Z,97417.45
2019-05-02T05:44:55.274Z,97393.28
2019-05-02T05:47:03.164Z,97402.77
2019-05-02T05:49:20.128Z,97400.36
2019-05-02T05:51:22.173Z,97405.45
2019-05-02T05:53:30.166Z,97398.47
2019-05-02T05:55:38.417Z,97402.92
2019-05-02T05:57:49.722Z,97405.55
2019-05-02T05:59:58.253Z,97402.09
2019-05-02T06:02:13.163Z,97402.54
2019-05-02T06:04:22.124Z,97401.15
2019-05-02T06:06:27.422Z,97403.03
2019-05-02T06:08:35.466Z,97389.03
2019-05-02T06:10:45.412Z,97406.19
2019-05-02T06:12:53.369Z,97389.73
2019-05-02T06:15:02.193Z,97397.42
2019-05-02T06:17:10.782Z,97398.70
2019-05-02T06:19:19.410Z,97396.41
2019-05-02T06:21:27.242Z,97399.94
2019-05-02T06:23:36.388Z,97391.02
2019-05-02T06:25:44.593Z,97399.08
2019-05-02T06:27:53.646Z,97391.74
2019-05-02T06:30:01.644Z,97392.42
2019-05-02T06:32:14.121Z,97383.50
2019-05-02T06:34:19.444Z,97385.88
2019-05-02T06:36:32.116Z,97389.17
2019-05-02T06:38:38.000Z,97386.36
2019-05-02T06:40:46.633Z,97380.69
2019-05-02T06:42:54.692Z,97383.80
2019-05-02T06:45:02.485Z,97385.52
2019-05-02T06:47:10.490Z,97365.05
2019-05-02T06:49:24.266Z,97395.81
2019-05-02T06:51:31.011Z,97380.88
2019-05-02T06:53:41.260Z,97375.66
2019-05-02T06:55:48.767Z,97380.00
2019-05-02T06:58:01.941Z,97381.86
2019-05-02T07:00:08.203Z,97374.55
2019-05-02T07:02:17.535Z,97383.53
2019-05-02T07:04:26.985Z,97371.39
2019-05-02T07:06:45.565Z,97372.37
2019-05-02T07:08:44.551Z,97364.91
2019-05-02T07:10:55.976Z,97353.23
2019-05-02T07:13:10.910Z,97350.03
2019-05-02T07:15:18.600Z,97368.95
2019-05-02T07:17:32.110Z,97356.11
2019-05-02T07:19:43.786Z,97363.45
2019-05-02T07:21:53.213Z,97361.39
2019-05-02T07:24:01.533Z,97363.58
2019-05-02T07:26:09.671Z,97364.54
2019-05-02T07:28:17.536Z,97355.87
2019-05-02T07:30:25.558Z,97356.45
2019-05-02T07:32:33.534Z,97353.88
2019-05-02T07:34:44.249Z,97347.80
2019-05-02T07:36:51.074Z,97351.20
2019-05-02T07:39:05.271Z,97347.91
2019-05-02T07:41:09.567Z,97355.16
2019-05-02T07:43:21.034Z,97345.97
2019-05-02T07:45:27.254Z,97344.43
2019-05-02T07:47:40.286Z,97341.72
2019-05-02T07:49:45.817Z,97347.05
2019-05-02T07:51:57.483Z,97348.14
2019-05-02T07:54:05.540Z,97352.88
2019-05-02T07:56:17.639Z,97339.13
2019-05-02T07:58:23.573Z,97333.86
2019-05-02T08:00:32.087Z,97336.09
2019-05-02T08:02:41.177Z,97347.97
2019-05-02T08:04:50.206Z,97330.67
2019-05-02T08:06:58.237Z,97346.67
2019-05-02T08:09:09.304Z,97328.97
2019-05-02T08:11:17.811Z,97341.41
2019-05-02T08:13:27.777Z,97333.80
2019-05-02T08:15:36.344Z,97327.94
2019-05-02T08:17:53.224Z,97335.83
2019-05-02T08:19:56.250Z,97334.21
2019-05-02T08:22:12.893Z,97326.92
2019-05-02T08:24:15.152Z,97318.32
2019-05-02T08:26:23.554Z,97333.69
2019-05-02T08:28:46.947Z,97340.80
2019-05-02T08:30:57.873Z,97339.70
2019-05-02T08:33:06.573Z,97332.77
2019-05-02T08:35:16.244Z,97332.58
2019-05-02T08:37:26.480Z,97328.20
2019-05-02T08:39:35.456Z,97336.52
2019-05-02T08:41:43.949Z,97342.63
2019-05-02T08:43:52.444Z,97338.22
2019-05-02T08:46:00.886Z,97323.52
2019-05-02T08:48:11.228Z,97343.57
2019-05-02T08:50:19.690Z,97350.36
2019-05-02T08:52:28.269Z,97345.80
2019-05-02T08:54:37.131Z,97321.02
2019-05-02T08:56:48.244Z,97343.92
2019-05-02T08:58:56.764Z,97343.19
2019-05-02T09:01:09.184Z,97350.77
2019-05-02T09:03:18.054Z,97337.78
2019-05-02T09:05:27.034Z,97330.34
2019-05-02T09:07:37.156Z,97331.68
2019-05-02T09:09:44.709Z,97336.08
2019-05-02T09:12:04.834Z,97335.26
2019-05-02T09:14:02.359Z,97327.47
2019-05-02T09:16:12.062Z,97331.95
2019-05-02T09:18:30.030Z,97329.70
2019-05-02T09:20:33.047Z,97345.86
2019-05-02T09:22:41.833Z,97321.52
2019-05-02T09:25:44.493Z,97311.03
2019-05-02T09:28:27.397Z,97320.38
2019-05-02T09:30:38.500Z,97311.21
2019-05-02T09:32:46.301Z,97330.44
2019-05-02T09:34:56.657Z,97337.74
2019-05-02T09:37:04.804Z,97323.00
2019-05-02T09:39:12.756Z,97333.17
2019-05-02T09:41:22.146Z,97334.33
2019-05-02T09:43:34.846Z,97320.88
2019-05-02T09:45:43.191Z,97325.05
2019-05-02T09:47:57.302Z,97320.86
2019-05-02T09:50:06.543Z,97312.30
2019-05-02T09:52:14.952Z,97309.02
2019-05-02T09:54:29.354Z,97299.45
2019-05-02T09:56:38.180Z,97311.81
2019-05-02T09:58:49.314Z,97321.22
2019-05-02T10:01:04.858Z,97330.19
2019-05-02T10:03:13.588Z,97320.88
2019-05-02T10:05:23.128Z,97304.97
2019-05-02T10:07:32.425Z,97315.33
2019-05-02T10:09:42.417Z,97324.04
2019-05-02T10:11:52.463Z,97319.78
2019-05-02T10:14:02.513Z,97317.14
2019-05-02T10:16:12.251Z,97312.80
2019-05-02T10:18:25.613Z,97313.40
2019-05-02T10:20:36.211Z,97311.00
2019-05-02T10:22:41.927Z,97313.86
2019-05-02T10:24:51.987Z,97291.70
2019-05-02T10:27:04.169Z,97303.09
2019-05-02T10:29:09.851Z,97301.05
2019-05-02T10:31:21.834Z,97298.92
2019-05-02T10:33:37.338Z,97304.43
2019-05-02T10:35:43.637Z,97303.83
2019-05-02T10:37:52.513Z,97308.00
2019-05-02T10:40:02.441Z,97301.73
2019-05-02T10:42:09.989Z,97307.08
2019-05-02T10:44:18.156Z,97299.97
2019-05-02T10:46:33.424Z,97304.14
2019-05-02T10:48:42.135Z,97297.38
2019-05-02T10:50:52.487Z,97299.21
2019-05-02T10:53:05.378Z,97295.37
2019-05-02T10:55:12.770Z,97296.56
2019-05-02T10:57:22.065Z,97292.00
2019-05-02T10:59:32.775Z,97301.57
2019-05-02T11:01:45.587Z,97295.72
2019-05-02T11:03:57.796Z,97294.41
2019-05-02T11:06:07.776Z,97302.80
2019-05-02T11:08:16.258Z,97283.50
2019-05-02T11:10:25.030Z,97284.94
2019-05-02T11:12:41.917Z,97273.44
2019-05-02T11:14:51.685Z,97281.67
2019-05-02T11:18:40.365Z,97275.05
2019-05-02T11:20:42.085Z,97295.07
2019-05-02T11:22:52.626Z,97282.51
2019-05-02T11:25:01.700Z,97274.69
2019-05-02T11:27:10.043Z,97260.20
2019-05-02T11:29:19.219Z,97275.80
2019-05-02T11:31:29.444Z,97296.16
2019-05-02T11:33:37.784Z,97291.39
2019-05-02T11:35:48.901Z,97281.53
2019-05-02T11:37:56.886Z,97281.80
2019-05-02T11:40:08.459Z,97263.69
2019-05-02T11:42:22.190Z,97278.83
2019-05-02T11:44:28.486Z,97279.98
2019-05-02T11:46:37.494Z,97256.13
2019-05-02T11:48:55.495Z,97268.94
2019-05-02T11:50:58.003Z,97273.94
2019-05-02T11:53:09.141Z,97269.16
2019-05-02T11:55:19.009Z,97270.94
2019-05-02T11:57:28.680Z,97283.83
2019-05-02T11:59:34.859Z,97266.41
2019-05-02T12:01:56.917Z,97268.49
2019-05-02T12:03:54.328Z,97268.35
2019-05-02T12:06:06.772Z,97282.47
2019-05-02T12:08:12.357Z,97261.92
2019-05-02T12:10:21.621Z,97270.67
2019-05-02T12:12:32.476Z,97267.88
2019-05-02T12:14:39.169Z,97252.28
2019-05-02T12:16:48.174Z,97254.92
2019-05-02T12:19:08.577Z,97252.50
2019-05-02T12:21:05.953Z,97252.97
2019-05-02T12:23:13.936Z,97256.41
2019-05-02T12:25:22.358Z,97250.98
2019-05-02T12:27:31.839Z,97264.04
2019-05-02T12:29:39.854Z,97262.02
2019-05-02T12:31:56.514Z,97270.39
2019-05-02T12:34:06.324Z,97263.21
2019-05-02T12:36:14.373Z,97267.95
2019-05-02T12:38:23.124Z,97266.92
2019-05-02T12:40:32.559Z,97266.08
2019-05-02T12:42:41.820Z,97247.45
2019-05-02T12:44:49.757Z,97271.20
2019-05-02T12:46:57.713Z,97261.76
2019-05-02T12:49:05.598Z,97248.20
2019-05-02T12:51:13.553Z,97233.91
2019-05-02T12:53:22.020Z,97260.13
2019-05-02T12:55:29.928Z,97252.30
2019-05-02T12:57:37.716Z,97254.03
2019-05-02T12:59:45.500Z,97240.25
2019-05-02T13:01:53.483Z,97245.83
2019-05-02T13:04:06.637Z,97243.34
2019-05-02T13:06:14.418Z,97242.42
2019-05-02T13:08:25.104Z,97240.96
2019-05-02T13:10:33.370Z,97246.25
2019-05-02T13:12:43.032Z,97245.81
2019-05-02T13:14:52.846Z,97246.81
2019-05-02T13:17:03.854Z,97245.83
2019-05-02T13:19:11.950Z,97240.35
2019-05-02T13:21:23.399Z,97241.08
2019-05-02T13:23:37.165Z,97249.33
2019-05-02T13:25:45.089Z,97247.63
2019-05-02T13:27:53.139Z,97252.23
2019-05-02T13:30:03.354Z,97238.36
2019-05-02T13:32:18.685Z,97243.27
2019-05-02T13:34:43.668Z,97232.85
2019-05-02T13:36:52.073Z,97233.75
2019-05-02T13:39:01.683Z,97241.42
2019-05-02T13:41:11.933Z,97234.77
2019-05-02T13:43:21.855Z,97231.44
2019-05-02T13:45:29.590Z,97240.03
2019-05-02T13:47:37.523Z,97242.05
2019-05-02T13:49:53.883Z,97238.53
2019-05-02T13:51:57.706Z,97232.66
2019-05-02T13:54:06.159Z,97228.06
2019-05-02T13:56:21.827Z,97222.11
2019-05-02T13:58:32.653Z,97243.02
2019-05-02T14:00:42.449Z,97231.92
2019-05-02T14:02:51.989Z,97230.75
2019-05-02T14:05:02.119Z,97234.73
2019-05-02T14:07:13.243Z,97226.84
2019-05-02T14:09:23.025Z,97227.09
2019-05-02T14:11:43.355Z,97225.89
2019-05-02T14:13:52.155Z,97222.71
2019-05-02T14:16:02.150Z,97224.98
2019-05-02T14:18:12.446Z,97231.64
2019-05-02T14:20:22.481Z,97227.84
2019-05-02T14:22:32.404Z,97233.09
2019-05-02T14:24:42.067Z,97223.17
2019-05-02T14:26:49.834Z,97225.48
2019-05-02T14:28:57.686Z,97224.27
2019-05-02T14:31:06.015Z,97223.25
2019-05-02T14:33:18.497Z,97218.16
2019-05-02T14:35:32.613Z,97225.56
2019-05-02T14:37:42.100Z,97226.23
2019-05-02T14:39:52.475Z,97225.91
2019-05-02T14:42:03.327Z,97220.67
2019-05-02T14:44:11.988Z,97228.94
2019-05-02T14:46:22.327Z,97221.38
2019-05-02T14:48:41.049Z,97227.83
2019-05-02T14:50:45.798Z,97214.84
2019-05-02T14:52:53.986Z,97228.34
2019-05-02T14:55:02.934Z,97222.70
2019-05-02T14:57:17.119Z,97228.77
2019-05-02T14:59:28.740Z,97208.64
2019-05-02T15:01:36.832Z,97231.75
2019-05-02T15:03:44.713Z,97222.66
2019-05-02T15:05:53.598Z,97232.45
2019-05-02T15:08:06.540Z,97212.87
2019-05-02T15:10:12.609Z,97217.25
2019-05-02T15:12:22.219Z,97218.92
2019-05-02T15:14:33.078Z,97212.32
2019-05-02T15:16:44.971Z,97208.62
2019-05-02T15:18:53.137Z,97241.77
2019-05-02T15:21:03.853Z,97206.38
2019-05-02T15:23:17.592Z,97216.10
2019-05-02T15:25:21.816Z,97227.94
2019-05-02T15:27:40.158Z,97189.98
2019-05-02T15:29:42.009Z,97215.23
2019-05-02T15:31:52.649Z,97225.69
2019-05-02T15:34:05.018Z,97233.09
2019-05-02T15:36:13.399Z,97224.97
2019-05-02T15:38:27.399Z,97229.09
2019-05-02T15:42:39.807Z,97230.88
2019-05-02T15:44:47.787Z,97232.42
2019-05-02T15:46:58.355Z,97225.38
2019-05-02T15:49:06.402Z,97231.44
2019-05-02T15:51:14.320Z,97234.88
2019-05-02T15:53:44.610Z,97226.30
2019-05-02T15:55:52.660Z,97235.66
2019-05-02T15:58:02.395Z,97224.69
2019-05-02T16:00:15.519Z,97228.54
2019-05-02T16:02:26.664Z,97230.84
2019-05-02T16:04:38.410Z,97235.82
2019-05-02T16:06:46.206Z,97227.67
2019-05-02T16:08:54.265Z,97234.80
2019-05-02T16:11:02.964Z,97230.49
2019-05-02T16:13:13.550Z,97233.24
2019-05-02T16:15:26.223Z,97227.25
2019-05-02T16:17:33.443Z,97231.12
2019-05-02T16:19:43.153Z,97231.41
2019-05-02T16:22:11.492Z,97223.96
2019-05-02T16:24:22.539Z,97225.61
2019-05-02T16:26:35.257Z,97231.45
2019-05-02T16:28:44.019Z,97221.70
2019-05-02T16:30:52.611Z,97228.25
2019-05-02T16:33:02.663Z,97235.63
2019-05-02T16:35:13.552Z,97225.23
2019-05-02T16:37:22.530Z,97236.53
2019-05-02T16:39:33.205Z,97233.37
2019-05-02T16:41:48.893Z,97241.22
2019-05-02T16:43:51.851Z,97246.44
2019-05-02T16:46:01.637Z,97235.85
2019-05-02T16:48:09.454Z,97238.33
2019-05-02T16:50:19.078Z,97238.95
2019-05-02T16:52:26.962Z,97259.94
2019-05-02T16:54:41.537Z,97240.50
2019-05-02T16:56:45.977Z,97239.23
2019-05-02T16:58:55.131Z,97240.87
2019-05-02T17:01:03.803Z,97244.56
2019-05-02T17:03:12.644Z,97244.77
2019-05-02T17:05:22.150Z,97236.92
2019-05-02T17:07:34.896Z,97246.03
2019-05-02T17:09:46.713Z,97250.11
2019-05-02T17:11:54.788Z,97254.55
2019-05-02T17:14:07.185Z,97254.92
2019-05-02T17:16:17.086Z,97256.11
2019-05-02T17:18:24.219Z,97256.22
2019-05-02T17:20:33.053Z,97260.07
2019-05-02T17:22:41.469Z,97267.14
2019-05-02T17:24:52.538Z,97260.05
2019-05-02T17:27:02.449Z,97266.38
2019-05-02T17:29:11.908Z,97265.21
2019-05-02T17:31:21.092Z,97264.33
2019-05-02T17:33:29.629Z,97271.13
2019-05-02T17:35:41.648Z,97270.61
2019-05-02T17:37:49.106Z,97269.78
2019-05-02T17:39:58.365Z,97274.72
2019-05-02T17:42:06.401Z,97279.84
2019-05-02T17:44:18.364Z,97269.53
2019-05-02T17:46:25.983Z,97279.80
2019-05-02T17:48:37.365Z,97285.02
2019-05-02T17:50:59.207Z,97281.02
2019-05-02T17:53:07.889Z,97285.45
2019-05-02T17:55:16.391Z,97284.84
2019-05-02T17:57:28.487Z,97287.16
2019-05-02T17:59:37.510Z,97291.28
2019-05-02T18:01:44.390Z,97297.86
2019-05-02T18:03:52.384Z,97295.77
2019-05-02T18:06:02.512Z,97291.95
2019-05-02T18:08:14.489Z,97297.52
2019-05-02T18:10:23.023Z,97301.17
2019-05-02T18:12:32.370Z,97301.72
2019-05-02T18:14:39.723Z,97303.80
2019-05-02T18:16:51.881Z,97305.73
2019-05-02T18:18:57.164Z,97309.84
2019-05-02T18:21:05.677Z,97311.41
2019-05-02T18:23:13.689Z,97311.55
2019-05-02T18:25:25.275Z,97313.62
2019-05-02T18:27:31.770Z,97319.05
2019-05-02T18:29:42.652Z,97323.10
2019-05-02T18:31:49.389Z,97320.73
2019-05-02T18:33:57.445Z,97328.31
2019-05-02T18:36:05.751Z,97330.33
2019-05-02T18:38:15.838Z,97329.27
2019-05-02T18:40:27.939Z,97331.02
2019-05-02T18:42:34.785Z,97331.75
2019-05-02T18:44:43.738Z,97336.91
2019-05-02T18:46:51.980Z,97336.45
2019-05-02T18:49:00.021Z,97335.28
2019-05-02T18:51:07.928Z,97335.15
2019-05-02T18:53:18.689Z,97336.64
2019-05-02T18:55:26.250Z,97344.39
2019-05-02T18:57:34.048Z,97346.22
2019-05-02T18:59:42.697Z,97346.64
2019-05-02T19:01:54.487Z,97345.49
2019-05-02T19:04:02.102Z,97344.59
2019-05-02T19:06:11.689Z,97349.02
2019-05-02T19:08:29.061Z,97346.17
2019-05-02T19:10:29.331Z,97352.33
2019-05-02T19:12:37.323Z,97346.17
2019-05-02T19:14:45.217Z,97346.33
2019-05-02T19:16:53.264Z,97344.27
2019-05-02T19:19:01.775Z,97348.61
2019-05-02T19:21:12.504Z,97350.38
2019-05-02T19:23:22.647Z,97345.14
2019-05-02T19:25:32.185Z,97347.14
2019-05-02T19:27:52.027Z,97344.12
2019-05-02T19:29:59.897Z,97342.02
2019-05-02T19:32:12.024Z,97335.84
2019-05-02T19:34:22.749Z,97341.80
2019-05-02T19:36:29.113Z,97342.01
2019-05-02T19:38:37.110Z,97345.34
2019-05-02T19:40:45.041Z,97348.12
2019-05-02T19:42:57.319Z,97345.04
2019-05-02T19:45:11.253Z,97352.98
2019-05-02T19:47:17.481Z,97352.49
2019-05-02T19:49:25.386Z,97344.58
2019-05-02T19:51:33.434Z,97346.22
2019-05-02T19:53:42.635Z,97345.19
2019-05-02T19:55:52.048Z,97344.62
2019-05-02T19:58:04.844Z,97346.04
2019-05-02T20:00:12.160Z,97352.12
2019-05-02T20:02:22.253Z,97350.27
2019-05-02T20:04:32.623Z,97347.02
2019-05-02T20:06:41.822Z,97348.36
2019-05-02T20:08:52.518Z,97348.95
2019-05-02T20:11:01.919Z,97351.89
2019-05-02T20:13:11.661Z,97345.02
2019-05-02T20:15:25.358Z,97340.27
2019-05-02T20:17:32.566Z,97343.75
2019-05-02T20:19:42.360Z,97350.19
2019-05-02T20:21:57.071Z,97344.14
2019-05-02T20:24:09.160Z,97348.52
2019-05-02T20:26:15.410Z,97350.05
2019-05-02T20:28:23.531Z,97353.09
2019-05-02T20:30:31.459Z,97353.31
2019-05-02T20:32:39.322Z,97350.85
2019-05-02T20:34:47.185Z,97352.35
2019-05-02T20:36:55.007Z,97358.84
2019-05-02T20:39:03.412Z,97358.48
2019-05-02T20:41:12.709Z,97357.41
2019-05-02T20:43:22.688Z,97368.09
2019-05-02T20:45:32.331Z,97359.92
2019-05-02T20:47:40.417Z,97361.55
2019-05-02T20:49:48.245Z,97368.78
2019-05-02T20:51:57.212Z,97370.06
2019-05-02T20:54:06.575Z,97371.34
2019-05-02T20:56:14.490Z,97372.28
2019-05-02T20:58:25.241Z,97365.48
2019-05-02T21:00:33.673Z,97363.83
2019-05-02T21:02:42.470Z,97361.05
2019-05-02T21:04:52.125Z,97360.48
2019-05-02T21:07:08.983Z,97359.42
2019-05-02T21:09:21.754Z,97364.34
2019-05-02T21:11:29.834Z,97369.23
2019-05-02T21:13:37.900Z,97368.52
2019-05-02T21:15:45.953Z,97370.14
2019-05-02T21:17:53.816Z,97377.63
2019-05-02T21:20:02.060Z,97380.90
2019-05-02T21:22:16.961Z,97379.51
2019-05-02T21:24:24.794Z,97384.06
2019-05-02T21:26:32.998Z,97376.84
2019-05-02T21:28:42.783Z,97372.28
2019-05-02T21:30:52.354Z,97376.91
2019-05-02T21:33:00.277Z,97373.97
2019-05-02T21:35:08.545Z,97378.48
2019-05-02T21:37:16.921Z,97381.33
2019-05-02T21:39:24.799Z,97380.38
2019-05-02T21:41:33.159Z,97388.72
2019-05-02T21:43:42.515Z,97382.55
2019-05-02T21:45:51.639Z,97384.39
2019-05-02T21:47:59.822Z,97381.67
2019-05-02T21:50:22.300Z,97387.45
2019-05-02T21:52:34.936Z,97387.52
2019-05-02T21:54:44.506Z,97384.43
2019-05-02T21:56:54.020Z,97387.38
2019-05-02T21:59:03.450Z,97378.55
2019-05-02T22:01:13.599Z,97384.08
2019-05-02T22:03:21.923Z,97389.66
2019-05-02T22:05:31.638Z,97393.70
2019-05-02T22:07:39.236Z,97385.17
2019-05-02T22:09:47.190Z,97387.77
2019-05-02T22:11:54.974Z,97387.87
2019-05-02T22:14:03.259Z,97385.15
2019-05-02T22:16:12.854Z,97387.56
2019-05-02T22:18:21.672Z,97386.48
2019-05-02T22:20:32.000Z,97379.20
2019-05-02T22:22:42.627Z,97379.66
2019-05-02T22:24:52.676Z,97381.94
2019-05-02T22:27:01.926Z,97383.31
2019-05-02T22:29:12.224Z,97375.73
2019-05-02T22:31:20.283Z,97379.91
2019-05-02T22:33:28.365Z,97384.14
2019-05-02T22:35:36.584Z,97389.69
2019-05-02T22:37:47.115Z,97389.77
2019-05-02T22:39:56.692Z,97387.97
2019-05-02T22:42:05.111Z,97391.17
2019-05-02T22:44:12.883Z,97391.92
2019-05-02T22:46:39.439Z,97388.74
2019-05-02T22:48:47.216Z,97388.22
2019-05-02T22:50:55.192Z,97390.59
2019-05-02T22:53:03.107Z,97395.45
2019-05-02T22:55:11.983Z,97392.27
2019-05-02T22:57:22.398Z,97391.73
2019-05-02T22:59:31.677Z,97389.36
2019-05-02T23:01:41.983Z,97392.65
2019-05-02T23:03:52.405Z,97395.22
2019-05-02T23:06:01.801Z,97386.59
2019-05-02T23:08:10.026Z,97388.32
2019-05-02T23:10:17.971Z,97388.70
2019-05-02T23:12:25.987Z,97383.17
2019-05-02T23:14:34.039Z,97382.53
2019-05-02T23:16:42.868Z,97380.98
2019-05-02T23:18:52.027Z,97385.00
2019-05-02T23:21:01.998Z,97386.91
2019-05-02T23:23:12.411Z,97399.94
2019-05-02T23:25:39.124Z,97389.47
2019-05-02T23:27:48.813Z,97388.83
2019-05-02T23:29:56.683Z,97394.47
2019-05-02T23:32:04.895Z,97395.65
2019-05-02T23:34:12.747Z,97395.59
2019-05-02T23:36:21.214Z,97386.92
2019-05-02T23:38:29.167Z,97390.11
2019-05-02T23:40:37.035Z,97387.66
2019-05-02T23:42:44.925Z,97386.28
2019-05-02T23:44:52.942Z,97385.48
2019-05-02T23:47:02.360Z,97382.94
2019-05-02T23:49:12.542Z,97387.11
2019-05-02T23:51:20.395Z,97391.03
2019-05-02T23:53:28.262Z,97384.56
2019-05-02T23:55:36.332Z,97390.73
2019-05-02T23:57:44.647Z,97392.59
2019-05-02T23:59:53.528Z,97387.74
